createdAt,value
2018-05-18T00:02:27.604Z,13.17
2018-05-18T00:04:55.166Z,13.19
2018-05-18T00:07:22.679Z,13.25
2018-05-18T00:09:50.283Z,13.23
2018-05-18T00:12:17.808Z,13.16
2018-05-18T00:14:45.342Z,13.08
2018-05-18T00:17:12.864Z,13.09
2018-05-18T00:19:40.417Z,13.05
2018-05-18T00:22:07.987Z,12.95
2018-05-18T00:24:35.512Z,12.95
2018-05-18T00:27:03.104Z,12.93
2018-05-18T00:29:30.615Z,12.88
2018-05-18T00:31:58.190Z,12.91
2018-05-18T00:34:25.719Z,12.90
2018-05-18T00:36:53.252Z,12.90
2018-05-18T00:39:20.774Z,12.87
2018-05-18T00:41:48.361Z,12.82
2018-05-18T00:44:15.877Z,12.79
2018-05-18T00:46:43.412Z,12.77
2018-05-18T00:49:11.034Z,12.73
2018-05-18T00:51:38.558Z,12.70
2018-05-18T00:54:06.159Z,12.61
2018-05-18T00:56:33.717Z,12.70
2018-05-18T00:59:01.247Z,12.63
2018-05-18T01:01:28.835Z,12.66
2018-05-18T01:03:56.452Z,12.66
2018-05-18T01:06:24.010Z,12.62
2018-05-18T01:08:51.563Z,12.58
2018-05-18T01:11:19.085Z,12.63
2018-05-18T01:13:46.638Z,12.65
2018-05-18T01:16:14.168Z,12.69
2018-05-18T01:18:41.696Z,12.68
2018-05-18T01:21:09.322Z,12.66
2018-05-18T01:23:36.840Z,12.68
2018-05-18T01:26:04.432Z,12.59
2018-05-18T01:28:31.995Z,12.60
2018-05-18T01:30:59.525Z,12.61
2018-05-18T01:33:27.060Z,12.65
2018-05-18T01:35:54.593Z,12.69
2018-05-18T01:38:22.111Z,12.56
2018-05-18T01:40:49.693Z,12.54
2018-05-18T01:43:17.215Z,12.58
2018-05-18T01:45:44.740Z,12.57
2018-05-18T01:48:12.372Z,12.58
2018-05-18T01:50:39.904Z,12.54
2018-05-18T01:53:07.513Z,12.47
2018-05-18T01:55:35.060Z,12.47
2018-05-18T01:58:02.586Z,12.44
2018-05-18T02:00:30.112Z,12.41
2018-05-18T02:02:57.634Z,12.41
2018-05-18T02:05:25.171Z,12.41
2018-05-18T02:07:52.836Z,12.38
2018-05-18T02:10:20.313Z,12.39
2018-05-18T02:12:47.846Z,12.35
2018-05-18T02:15:15.374Z,12.32
2018-05-18T02:17:42.910Z,12.26
2018-05-18T02:20:10.554Z,12.23
2018-05-18T02:22:38.081Z,12.19
2018-05-18T02:25:05.612Z,12.19
2018-05-18T02:27:33.246Z,12.17
2018-05-18T02:30:00.766Z,12.06
2018-05-18T02:32:28.352Z,12.09
2018-05-18T02:34:55.882Z,12.11
2018-05-18T02:37:23.431Z,12.06
2018-05-18T02:39:50.959Z,12.04
2018-05-18T02:42:18.490Z,12.04
2018-05-18T02:44:46.022Z,12.04
2018-05-18T02:47:13.544Z,12.04
2018-05-18T02:49:41.075Z,12.02
2018-05-18T02:52:08.596Z,12.00
2018-05-18T02:54:36.116Z,12.01
2018-05-18T02:57:03.647Z,11.95
2018-05-18T02:59:31.175Z,11.92
2018-05-18T03:01:58.752Z,11.85
2018-05-18T03:04:26.325Z,11.85
2018-05-18T03:06:53.885Z,11.76
2018-05-18T03:09:21.451Z,11.75
2018-05-18T03:11:48.979Z,11.70
2018-05-18T03:14:16.600Z,11.79
2018-05-18T03:16:44.113Z,11.75
2018-05-18T03:19:11.863Z,11.81
2018-05-18T03:21:39.380Z,11.83
2018-05-18T03:24:06.914Z,11.77
2018-05-18T03:26:34.441Z,11.77
2018-05-18T03:29:01.956Z,11.73
2018-05-18T03:31:29.472Z,11.72
2018-05-18T03:33:56.994Z,11.78
2018-05-18T03:36:24.608Z,11.78
2018-05-18T03:38:52.168Z,11.79
2018-05-18T03:41:19.684Z,11.78
2018-05-18T03:43:47.208Z,11.83
2018-05-18T03:46:14.731Z,11.75
2018-05-18T03:48:42.256Z,11.80
2018-05-18T03:51:09.837Z,11.76
2018-05-18T03:53:37.356Z,11.79
2018-05-18T03:56:04.887Z,11.83
2018-05-18T03:58:32.412Z,11.86
2018-05-18T04:00:59.936Z,11.82
2018-05-18T04:03:39.515Z,11.85
2018-05-18T04:06:18.877Z,11.81
2018-05-18T04:08:53.198Z,11.83
2018-05-18T04:11:20.723Z,11.83
2018-05-18T04:13:48.253Z,11.76
2018-05-18T04:16:15.781Z,11.83
2018-05-18T04:18:43.308Z,11.87
2018-05-18T04:21:10.900Z,11.92
2018-05-18T04:23:38.460Z,11.96
2018-05-18T04:26:05.985Z,12.03
2018-05-18T04:28:33.513Z,11.98
2018-05-18T04:31:01.137Z,12.08
2018-05-18T04:33:28.651Z,12.10
2018-05-18T04:35:56.201Z,12.21
2018-05-18T04:38:23.731Z,12.23
2018-05-18T04:40:51.259Z,12.30
2018-05-18T04:43:18.871Z,12.35
2018-05-18T04:45:46.500Z,12.40
2018-05-18T04:48:14.065Z,12.48
2018-05-18T04:50:41.584Z,12.48
2018-05-18T04:53:09.109Z,12.60
2018-05-18T04:55:36.744Z,12.61
2018-05-18T04:58:04.282Z,12.63
2018-05-18T05:00:31.812Z,12.71
2018-05-18T05:02:59.359Z,12.76
2018-05-18T05:05:26.962Z,12.73
2018-05-18T05:07:54.469Z,12.83
2018-05-18T05:10:21.996Z,12.90
2018-05-18T05:12:49.513Z,12.97
2018-05-18T05:15:17.099Z,13.02
2018-05-18T05:17:44.645Z,13.11
2018-05-18T05:20:12.161Z,13.18
2018-05-18T05:22:39.721Z,13.23
2018-05-18T05:25:07.254Z,13.28
2018-05-18T05:27:34.780Z,13.32
2018-05-18T05:30:02.313Z,13.40
2018-05-18T05:32:29.940Z,13.41
2018-05-18T05:34:57.496Z,13.47
2018-05-18T05:37:25.012Z,13.50
2018-05-18T05:39:52.620Z,13.55
2018-05-18T05:42:20.380Z,13.61
2018-05-18T05:44:47.904Z,13.65
2018-05-18T05:47:15.436Z,13.65
2018-05-18T05:49:43.059Z,13.63
2018-05-18T05:52:10.584Z,13.63
2018-05-18T05:54:38.112Z,13.71
2018-05-18T05:57:05.643Z,13.74
2018-05-18T05:59:33.165Z,13.78
2018-05-18T06:02:00.684Z,13.59
2018-05-18T06:04:28.216Z,13.65
2018-05-18T06:06:55.741Z,13.70
2018-05-18T06:09:23.344Z,13.78
2018-05-18T06:11:50.893Z,13.83
2018-05-18T06:14:18.420Z,13.79
2018-05-18T06:16:45.981Z,13.74
2018-05-18T06:19:13.577Z,13.73
2018-05-18T06:21:41.132Z,13.76
2018-05-18T06:24:08.902Z,13.77
2018-05-18T06:26:36.426Z,13.72
2018-05-18T06:29:03.990Z,13.75
2018-05-18T06:31:31.507Z,13.75
2018-05-18T06:33:59.140Z,13.85
2018-05-18T06:36:26.737Z,13.90
2018-05-18T06:38:54.284Z,14.02
2018-05-18T06:41:21.893Z,14.16
2018-05-18T06:43:49.384Z,14.18
2018-05-18T06:46:16.938Z,14.17
2018-05-18T06:48:44.463Z,14.16
2018-05-18T06:51:12.061Z,14.23
2018-05-18T06:53:39.606Z,14.29
2018-05-18T06:56:07.180Z,14.36
2018-05-18T06:58:34.718Z,14.38
2018-05-18T07:01:02.271Z,14.38
2018-05-18T07:03:29.797Z,14.35
2018-05-18T07:05:57.352Z,14.43
2018-05-18T07:08:24.876Z,14.52
2018-05-18T07:10:52.453Z,14.53
2018-05-18T07:13:19.976Z,14.65
2018-05-18T07:15:47.511Z,14.73
2018-05-18T07:18:15.048Z,14.84
2018-05-18T07:20:42.676Z,14.83
2018-05-18T07:23:10.204Z,14.96
2018-05-18T07:25:37.745Z,15.09
2018-05-18T07:28:05.286Z,15.13
2018-05-18T07:30:32.916Z,15.19
2018-05-18T07:33:00.449Z,15.24
2018-05-18T07:35:27.992Z,15.25
2018-05-18T07:37:55.565Z,15.40
2018-05-18T07:40:23.149Z,15.43
2018-05-18T07:42:50.673Z,15.53
2018-05-18T07:45:18.214Z,15.56
2018-05-18T07:47:45.853Z,15.65
2018-05-18T07:50:13.361Z,15.76
2018-05-18T07:52:40.933Z,15.99
2018-05-18T07:55:08.472Z,16.23
2018-05-18T07:57:36.080Z,16.36
2018-05-18T08:00:03.643Z,16.56
2018-05-18T08:02:31.173Z,16.47
2018-05-18T08:04:58.699Z,16.56
2018-05-18T08:07:26.333Z,16.98
2018-05-18T08:09:53.863Z,17.21
2018-05-18T08:12:21.395Z,17.24
2018-05-18T08:14:49.006Z,17.24
2018-05-18T08:17:16.527Z,18.12
2018-05-18T08:19:44.122Z,18.30
2018-05-18T08:22:11.640Z,18.68
2018-05-18T08:24:39.179Z,18.61
2018-05-18T08:27:18.610Z,18.60
2018-05-18T08:29:46.134Z,18.52
2018-05-18T08:32:13.664Z,18.46
2018-05-18T08:34:41.187Z,18.12
2018-05-18T08:37:08.818Z,17.78
2018-05-18T08:39:36.344Z,18.16
2018-05-18T08:42:03.866Z,18.15
2018-05-18T08:44:31.448Z,18.42
2018-05-18T08:46:59.040Z,18.16
2018-05-18T08:49:26.642Z,18.05
2018-05-18T08:51:54.279Z,18.08
2018-05-18T08:54:21.843Z,18.01
2018-05-18T08:56:49.402Z,17.80
2018-05-18T08:59:16.928Z,17.87
2018-05-18T09:01:44.456Z,17.94
2018-05-18T09:04:12.016Z,18.05
2018-05-18T09:06:39.576Z,17.23
2018-05-18T09:09:07.197Z,17.61
2018-05-18T09:11:34.755Z,17.54
2018-05-18T09:14:02.285Z,17.51
2018-05-18T09:16:29.819Z,17.41
2018-05-18T09:18:57.439Z,17.19
2018-05-18T09:21:25.105Z,17.38
2018-05-18T09:23:52.667Z,17.11
2018-05-18T09:26:20.225Z,17.06
2018-05-18T09:28:47.778Z,17.05
2018-05-18T09:31:15.311Z,16.99
2018-05-18T09:33:42.844Z,17.09
2018-05-18T09:36:10.366Z,16.98
2018-05-18T09:38:37.897Z,16.73
2018-05-18T09:41:05.440Z,16.77
2018-05-18T09:43:33.009Z,16.85
2018-05-18T09:46:00.552Z,17.04
2018-05-18T09:48:28.249Z,16.95
2018-05-18T09:50:55.823Z,16.86
2018-05-18T09:53:23.382Z,16.93
2018-05-18T09:55:50.919Z,16.85
2018-05-18T09:58:18.448Z,16.88
2018-05-18T10:00:46.052Z,16.95
2018-05-18T10:03:13.559Z,17.05
2018-05-18T10:05:41.199Z,17.01
2018-05-18T10:08:08.744Z,17.01
2018-05-18T10:10:36.304Z,17.01
2018-05-18T10:13:03.831Z,17.07
2018-05-18T10:15:31.384Z,17.10
2018-05-18T10:17:58.921Z,17.02
2018-05-18T10:20:26.544Z,17.05
2018-05-18T10:22:54.076Z,16.93
2018-05-18T10:25:26.442Z,17.15
2018-05-18T10:27:53.972Z,17.23
2018-05-18T10:30:31.219Z,17.41
2018-05-18T10:32:58.740Z,17.28
2018-05-18T10:35:26.314Z,17.19
2018-05-18T10:37:53.835Z,17.25
2018-05-18T10:40:21.393Z,17.42
2018-05-18T10:42:49.534Z,17.35
2018-05-18T10:45:17.143Z,17.28
2018-05-18T10:47:44.649Z,17.31
2018-05-18T10:50:12.208Z,17.45
2018-05-18T10:52:39.773Z,17.50
2018-05-18T10:55:07.300Z,17.50
2018-05-18T10:57:34.862Z,17.51
2018-05-18T11:00:02.455Z,17.58
2018-05-18T11:02:29.971Z,17.68
2018-05-18T11:04:57.601Z,17.56
2018-05-18T11:07:25.121Z,17.66
2018-05-18T11:09:52.663Z,17.69
2018-05-18T11:12:20.249Z,17.70
2018-05-18T11:14:47.769Z,17.67
2018-05-18T11:17:15.377Z,17.65
2018-05-18T11:19:42.929Z,17.62
2018-05-18T11:22:10.489Z,17.73
2018-05-18T11:24:38.061Z,17.62
2018-05-18T11:27:05.618Z,17.58
2018-05-18T11:29:33.140Z,17.63
2018-05-18T11:32:00.759Z,17.60
2018-05-18T11:34:28.386Z,17.50
2018-05-18T11:36:55.943Z,17.48
2018-05-18T11:39:23.472Z,17.55
2018-05-18T11:41:51.028Z,17.69
2018-05-18T11:44:18.648Z,17.48
2018-05-18T11:46:46.176Z,17.49
2018-05-18T11:49:13.696Z,17.47
2018-05-18T11:51:41.323Z,17.64
2018-05-18T11:54:08.869Z,17.78
2018-05-18T11:56:36.391Z,17.68
2018-05-18T11:59:04.003Z,17.52
2018-05-18T12:01:31.531Z,17.43
2018-05-18T12:03:59.048Z,17.44
2018-05-18T12:06:26.571Z,17.53
2018-05-18T12:08:54.092Z,17.54
2018-05-18T12:11:21.693Z,17.56
2018-05-18T12:13:49.221Z,17.54
2018-05-18T12:16:16.753Z,17.56
2018-05-18T12:18:44.379Z,17.56
2018-05-18T12:21:11.901Z,17.67
2018-05-18T12:23:39.425Z,17.67
2018-05-18T12:26:07.082Z,17.75
2018-05-18T12:28:35.029Z,17.58
2018-05-18T12:31:02.556Z,17.72
2018-05-18T12:33:30.081Z,17.70
2018-05-18T12:35:57.630Z,17.71
2018-05-18T12:38:25.209Z,17.73
2018-05-18T12:40:52.812Z,17.61
2018-05-18T12:43:20.328Z,17.57
2018-05-18T12:45:47.856Z,17.49
2018-05-18T12:48:15.377Z,17.41
2018-05-18T12:50:42.896Z,17.16
2018-05-18T12:53:10.428Z,17.07
2018-05-18T12:55:38.085Z,17.14
2018-05-18T12:58:05.645Z,17.16
2018-05-18T13:00:33.179Z,17.18
2018-05-18T13:03:00.776Z,17.13
2018-05-18T13:05:28.429Z,17.15
2018-05-18T13:07:55.990Z,17.50
2018-05-18T13:10:23.549Z,17.21
2018-05-18T13:12:51.079Z,17.17
2018-05-18T13:15:18.597Z,17.12
2018-05-18T13:17:46.228Z,17.03
2018-05-18T13:20:13.751Z,17.09
2018-05-18T13:22:41.291Z,16.93
2018-05-18T13:25:08.840Z,16.83
2018-05-18T13:27:36.361Z,17.20
2018-05-18T13:30:03.892Z,17.17
2018-05-18T13:32:31.416Z,17.27
2018-05-18T13:34:58.953Z,17.35
2018-05-18T13:37:26.602Z,17.32
2018-05-18T13:39:54.161Z,17.34
2018-05-18T13:42:21.720Z,17.37
2018-05-18T13:44:49.264Z,17.37
2018-05-18T13:47:16.844Z,17.37
2018-05-18T13:49:44.400Z,17.30
2018-05-18T13:52:11.965Z,17.38
2018-05-18T13:54:39.495Z,17.27
2018-05-18T13:57:07.075Z,17.20
2018-05-18T13:59:34.581Z,17.31
2018-05-18T14:02:02.106Z,17.26
2018-05-18T14:04:29.648Z,17.37
2018-05-18T14:06:57.171Z,17.37
2018-05-18T14:09:24.779Z,17.36
2018-05-18T14:11:52.349Z,17.33
2018-05-18T14:14:19.876Z,17.28
2018-05-18T14:16:47.396Z,17.38
2018-05-18T14:19:14.923Z,17.34
2018-05-18T14:21:42.482Z,17.30
2018-05-18T14:24:10.018Z,17.30
2018-05-18T14:26:37.601Z,17.27
2018-05-18T14:29:05.128Z,17.20
2018-05-18T14:31:32.747Z,17.11
2018-05-18T14:34:00.490Z,17.16
2018-05-18T14:36:28.011Z,17.19
2018-05-18T14:38:55.537Z,17.25
2018-05-18T14:41:23.273Z,17.16
2018-05-18T14:43:50.939Z,17.09
2018-05-18T14:46:18.464Z,17.05
2018-05-18T14:48:46.047Z,17.05
2018-05-18T14:51:13.620Z,17.01
2018-05-18T14:53:41.132Z,17.01
2018-05-18T14:56:08.696Z,16.98
2018-05-18T14:58:36.412Z,16.91
2018-05-18T15:01:04.002Z,16.86
2018-05-18T15:03:31.542Z,16.86
2018-05-18T15:05:59.070Z,16.86
2018-05-18T15:08:26.634Z,16.89
2018-05-18T15:10:54.174Z,16.90
2018-05-18T15:13:21.722Z,16.90
2018-05-18T15:15:49.312Z,16.86
2018-05-18T15:18:16.874Z,16.77
2018-05-18T15:20:44.438Z,16.73
2018-05-18T15:23:11.987Z,16.64
2018-05-18T15:25:39.525Z,16.56
2018-05-18T15:28:07.109Z,16.54
2018-05-18T15:30:34.676Z,16.45
2018-05-18T15:33:02.199Z,16.39
2018-05-18T15:35:29.718Z,16.43
2018-05-18T15:37:57.251Z,16.32
2018-05-18T15:40:24.777Z,16.30
2018-05-18T15:42:52.304Z,16.28
2018-05-18T15:45:19.830Z,16.27
2018-05-18T15:47:47.353Z,16.20
2018-05-18T15:50:14.945Z,16.12
2018-05-18T15:52:42.513Z,16.16
2018-05-18T15:55:10.037Z,16.18
2018-05-18T15:57:37.565Z,16.07
2018-05-18T16:00:05.093Z,16.03
2018-05-18T16:02:32.653Z,16.05
2018-05-18T16:05:00.182Z,15.97
2018-05-18T16:07:27.767Z,15.94
2018-05-18T16:09:55.329Z,15.91
2018-05-18T16:12:22.858Z,15.93
2018-05-18T16:14:50.382Z,15.93
2018-05-18T16:17:17.936Z,15.89
2018-05-18T16:19:45.462Z,15.87
2018-05-18T16:22:12.994Z,15.77
2018-05-18T16:24:40.578Z,15.67
2018-05-18T16:27:08.117Z,15.69
2018-05-18T16:29:35.643Z,15.61
2018-05-18T16:32:03.193Z,15.62
2018-05-18T16:34:30.726Z,15.65
2018-05-18T16:36:58.260Z,15.65
2018-05-18T16:39:25.796Z,15.60
2018-05-18T16:41:53.368Z,15.58
2018-05-18T16:44:20.963Z,15.60
2018-05-18T16:46:48.493Z,15.57
2018-05-18T16:49:16.015Z,15.54
2018-05-18T16:51:43.547Z,15.46
2018-05-18T16:54:11.077Z,15.44
2018-05-18T16:56:38.607Z,15.50
2018-05-18T16:59:06.216Z,15.49
2018-05-18T17:01:33.781Z,15.48
2018-05-18T17:04:01.338Z,15.48
2018-05-18T17:06:28.878Z,15.44
2018-05-18T17:08:56.417Z,15.47
2018-05-18T17:11:24.020Z,15.46
2018-05-18T17:13:51.581Z,15.40
2018-05-18T17:16:19.110Z,15.29
2018-05-18T17:18:46.706Z,15.28
2018-05-18T17:21:14.228Z,15.35
2018-05-18T17:23:41.757Z,15.30
2018-05-18T17:26:09.313Z,15.35
2018-05-18T17:28:36.840Z,15.32
2018-05-18T17:31:04.365Z,15.30
2018-05-18T17:33:31.900Z,15.30
2018-05-18T17:35:59.445Z,15.29
2018-05-18T17:38:26.977Z,15.24
2018-05-18T17:40:54.545Z,15.22
2018-05-18T17:43:22.198Z,15.26
2018-05-18T17:45:49.761Z,15.28
2018-05-18T17:48:17.284Z,15.19
2018-05-18T17:50:44.808Z,15.25
2018-05-18T17:53:12.377Z,15.25
2018-05-18T17:55:39.998Z,15.23
2018-05-18T17:58:07.562Z,15.20
2018-05-18T18:00:35.126Z,15.17
2018-05-18T18:03:02.680Z,15.18
2018-05-18T18:05:30.241Z,15.16
2018-05-18T18:07:57.820Z,15.17
2018-05-18T18:10:25.387Z,15.15
2018-05-18T18:12:52.926Z,15.15
2018-05-18T18:15:21.084Z,15.16
2018-05-18T18:17:48.655Z,15.15
2018-05-18T18:20:16.216Z,15.11
2018-05-18T18:22:43.785Z,15.09
2018-05-18T18:25:11.330Z,15.08
2018-05-18T18:27:38.858Z,15.04
2018-05-18T18:30:06.380Z,15.01
2018-05-18T18:32:33.913Z,14.96
2018-05-18T18:35:01.441Z,14.96
2018-05-18T18:37:28.983Z,14.92
2018-05-18T18:39:56.533Z,14.91
2018-05-18T18:42:24.939Z,14.90
2018-05-18T18:44:52.476Z,14.87
2018-05-18T18:47:20.022Z,14.85
2018-05-18T18:49:47.576Z,14.82
2018-05-18T18:52:15.136Z,14.82
2018-05-18T18:54:42.669Z,14.83
2018-05-18T18:57:10.216Z,14.82
2018-05-18T18:59:37.749Z,14.77
2018-05-18T19:02:05.280Z,14.80
2018-05-18T19:04:32.850Z,14.78
2018-05-18T19:07:00.396Z,14.78
2018-05-18T19:09:27.912Z,14.77
2018-05-18T19:11:55.455Z,14.75
2018-05-18T19:14:23.046Z,14.78
2018-05-18T19:16:50.610Z,14.78
2018-05-18T19:19:18.162Z,14.75
2018-05-18T19:21:45.731Z,14.71
2018-05-18T19:24:13.844Z,14.76
2018-05-18T19:26:41.416Z,14.74
2018-05-18T19:29:09.140Z,14.71
2018-05-18T19:31:36.781Z,14.72
2018-05-18T19:34:04.322Z,14.73
2018-05-18T19:36:31.916Z,14.69
2018-05-18T19:38:59.435Z,14.69
2018-05-18T19:41:26.975Z,14.64
2018-05-18T19:43:54.615Z,14.61
2018-05-18T19:46:22.744Z,14.60
2018-05-18T19:48:50.260Z,14.58
2018-05-18T19:51:17.798Z,14.58
2018-05-18T19:53:45.339Z,14.60
2018-05-18T19:56:12.879Z,14.59
2018-05-18T19:58:40.424Z,14.59
2018-05-18T20:01:07.987Z,14.59
2018-05-18T20:03:36.138Z,14.56
2018-05-18T20:06:03.754Z,14.59
2018-05-18T20:08:31.297Z,14.54
2018-05-18T20:10:58.873Z,14.51
2018-05-18T20:13:26.407Z,14.53
2018-05-18T20:15:54.015Z,14.52
2018-05-18T20:18:21.539Z,14.50
2018-05-18T20:20:49.067Z,14.51
2018-05-18T20:23:16.597Z,14.52
2018-05-18T20:25:44.133Z,14.51
2018-05-18T20:28:11.659Z,14.48
2018-05-18T20:30:39.256Z,14.51
2018-05-18T20:33:06.913Z,14.48
2018-05-18T20:35:34.439Z,14.52
2018-05-18T20:38:02.491Z,14.51
2018-05-18T20:40:30.003Z,14.47
2018-05-18T20:42:57.562Z,14.45
2018-05-18T20:45:25.156Z,14.46
2018-05-18T20:47:52.786Z,14.42
2018-05-18T20:50:20.345Z,14.38
2018-05-18T20:52:47.902Z,14.38
2018-05-18T20:55:15.432Z,14.41
2018-05-18T20:57:42.947Z,14.38
2018-05-18T21:00:10.484Z,14.33
2018-05-18T21:02:38.009Z,14.40
2018-05-18T21:05:05.535Z,14.39
2018-05-18T21:07:33.532Z,14.37
2018-05-18T21:10:01.075Z,14.35
2018-05-18T21:12:28.625Z,14.29
2018-05-18T21:14:56.153Z,14.32
2018-05-18T21:17:23.699Z,14.35
2018-05-18T21:19:51.238Z,14.32
2018-05-18T21:22:18.799Z,14.31
2018-05-18T21:24:46.359Z,14.28
2018-05-18T21:27:13.885Z,14.27
2018-05-18T21:29:41.415Z,14.26
2018-05-18T21:32:08.968Z,14.26
2018-05-18T21:34:36.511Z,14.27
2018-05-18T21:37:04.057Z,14.27
2018-05-18T21:39:31.579Z,14.27
2018-05-18T22:59:31.872Z,14.04
2018-05-18T23:01:59.565Z,14.06
2018-05-18T23:04:27.096Z,14.03
2018-05-18T23:06:54.621Z,14.07
2018-05-18T23:09:22.143Z,14.07
2018-05-18T23:11:49.672Z,14.02
2018-05-18T23:14:17.204Z,14.04
2018-05-18T23:16:44.745Z,14.04
2018-05-18T23:19:12.281Z,14.05
2018-05-18T23:21:39.818Z,14.08
2018-05-18T23:24:07.348Z,14.10
2018-05-18T23:26:34.877Z,14.10
2018-05-18T23:29:02.410Z,14.13
2018-05-18T23:31:29.952Z,14.14
2018-05-18T23:33:57.991Z,14.14
2018-05-18T23:36:25.617Z,14.14
2018-05-18T23:38:53.156Z,14.10
2018-05-18T23:41:20.697Z,14.13
2018-05-18T23:43:48.277Z,14.10
2018-05-18T23:46:15.809Z,14.12
2018-05-18T23:48:43.340Z,14.07
2018-05-18T23:51:10.889Z,14.03
2018-05-18T23:53:38.417Z,14.07
2018-05-18T23:56:05.992Z,14.08
2018-05-18T23:58:33.553Z,14.05
